Dalhart Municipal Airport
KDHT : now visible

Aeroporto :











RITROVATECI SU...

 
LOGIN :

Iscrizione | Disclaimer

   EN    FR    IT 

 









Sommario :    VFR   VFR Marginale   IFR   IFR Intensivo   IFR Molto Intensivo
Visibilità : 
Base nubi : 
>= 8 km
>= 3000ft
5 / 8 km
1000 / 3000 ft
1500m / 5 km
500 / 1000 ft
800 / 1500m
200 / 500 ft
< 800m
< 200 ft
Simboli :   Temporali  Nebbia  Neve Forte  Precipitazioni Forti  Vento > 20 kt






- Altitudine del aeroporto : 3991 ft


KDHT - Dalhart Municipal

ULTIMO METAR :
  • 201053Z AUTO 01019G27KT 7SM -SN FEW011 OVC044 M07/M09 A3049 RMK AO2 PK WND 01028/1010 SNB11 SLP343 P0000 T10671094

METARs OBSOLETI :
  • 201023Z AUTO 01021G27KT 3SM -SN FEW012 SCT020 OVC038 M06/M09 A3049 RMK AO2 PK WND 01028/1010 SNB11 P0000 T10611089
  • 200953Z AUTO 01020KT 10SM OVC015 M06/M08 A3048 RMK AO2 PK WND 01031/0859 SNB09E24 SLP337 P0000 T10561083
  • 200943Z AUTO 01020KT 10SM SCT010 OVC015 M06/M08 A3048 RMK AO2 PK WND 01031/0859 SNB09E24 P0000 T10561083
  • 200934Z AUTO 01020G28KT 10SM FEW008 OVC013 M06/M08 A3046 RMK AO2 PK WND 01031/0859 SNB09E24 P0000 T10561078
  • 200853Z AUTO 01023G30KT 10SM OVC010 M04/M07 A3045 RMK AO2 PK WND 01031/0829 SNB20E41 CIG 007V014 SLP325 P0000 60000 I3003 T10441067 51024
  • 200844Z AUTO 02022G30KT 8SM BKN010 OVC016 M04/M07 A3044 RMK AO2 PK WND 01031/0829 SNB20E41 CIG 007V014 P0000 T10441067

TAF KDHT
Valido dal 20 a 10 ore il 21 a 06 ore UTC


200940Z 2010/2106 03015G24KT 3SM -SN OVC018
FM201200 03014KT P6SM VCSH OVC013
FM201400 02013KT P6SM VCSH BKN035
FM201500 02012KT P6SM BKN028
FM201600 02012KT P6SM BKN050
FM201800 03011KT P6SM FEW080



MetMap, La meteo Aeronautica in un colpo d'occhio ! - Copyright ORBIFLY Dicembre 2007 - Disclaimer

ORBIFLY MET'MAP TEAM :

Programmazione e sviluppo : Alexandra Zaïnal
Concezione : Baudouin d'Aumeries
Aiuto per la programmazione : Marc-Olivier Méhu
Supporto tecnico e logistico : Manuel Goepfert
Aiuto per la traduzione : Arnaldo La Scala

Contatto : metmap@orbifly.com




FONTI E CREDITI :

   NOAA       Earth
Advisory